sensor_id;sensor_type;location;lat;lon;timestamp;pressure;altitude;pressure_sealevel;temperature;humidity
21728;BME280;11026;50.560;17.852;2023-11-25T00:01:42;97501.78;;;2.13;100.00
21728;BME280;11026;50.560;17.852;2023-11-25T00:04:10;97493.97;;;2.13;100.00
21728;BME280;11026;50.560;17.852;2023-11-25T00:06:36;97496.25;;;2.01;100.00
21728;BME280;11026;50.560;17.852;2023-11-25T00:09:04;97491.00;;;2.02;100.00
21728;BME280;11026;50.560;17.852;2023-11-25T00:11:33;97498.13;;;1.97;100.00
21728;BME280;11026;50.560;17.852;2023-11-25T00:14:00;97508.88;;;1.89;100.00
21728;BME280;11026;50.560;17.852;2023-11-25T00:16:27;97502.91;;;1.87;100.00
21728;BME280;11026;50.560;17.852;2023-11-25T00:18:54;97500.53;;;1.81;100.00
21728;BME280;11026;50.560;17.852;2023-11-25T00:21:22;97509.84;;;1.66;100.00
21728;BME280;11026;50.560;17.852;2023-11-25T00:23:49;97515.94;;;1.21;100.00
21728;BME280;11026;50.560;17.852;2023-11-25T00:26:16;97496.59;;;1.05;100.00
21728;BME280;11026;50.560;17.852;2023-11-25T00:28:43;97492.53;;;0.98;100.00
21728;BME280;11026;50.560;17.852;2023-11-25T00:31:11;97499.13;;;0.85;100.00
21728;BME280;11026;50.560;17.852;2023-11-25T00:33:38;97507.94;;;0.81;100.00
21728;BME280;11026;50.560;17.852;2023-11-25T00:36:05;97501.72;;;0.61;100.00
21728;BME280;11026;50.560;17.852;2023-11-25T00:38:33;97495.94;;;0.53;100.00
21728;BME280;11026;50.560;17.852;2023-11-25T00:41:01;97502.94;;;0.51;100.00
21728;BME280;11026;50.560;17.852;2023-11-25T00:43:28;97500.50;;;0.46;100.00
21728;BME280;11026;50.560;17.852;2023-11-25T00:45:56;97490.00;;;0.49;100.00
21728;BME280;11026;50.560;17.852;2023-11-25T00:48:26;97486.09;;;0.38;100.00
21728;BME280;11026;50.560;17.852;2023-11-25T00:50:54;97485.75;;;0.47;100.00
21728;BME280;11026;50.560;17.852;2023-11-25T00:53:21;97490.94;;;0.47;100.00
21728;BME280;11026;50.560;17.852;2023-11-25T00:55:48;97490.75;;;0.53;100.00
21728;BME280;11026;50.560;17.852;2023-11-25T00:58:16;97500.03;;;0.60;100.00
21728;BME280;11026;50.560;17.852;2023-11-25T01:00:44;97500.06;;;0.59;100.00
21728;BME280;11026;50.560;17.852;2023-11-25T01:03:11;97488.16;;;0.53;100.00
21728;BME280;11026;50.560;17.852;2023-11-25T01:05:38;97477.50;;;0.59;100.00
21728;BME280;11026;50.560;17.852;2023-11-25T01:08:05;97484.34;;;0.62;100.00
21728;BME280;11026;50.560;17.852;2023-11-25T01:10:32;97486.00;;;0.64;100.00
21728;BME280;11026;50.560;17.852;2023-11-25T01:13:01;97497.44;;;0.60;100.00
21728;BME280;11026;50.560;17.852;2023-11-25T01:15:28;97479.88;;;0.65;100.00
21728;BME280;11026;50.560;17.852;2023-11-25T01:17:58;97481.69;;;0.63;100.00
21728;BME280;11026;50.560;17.852;2023-11-25T01:20:26;97479.38;;;0.56;100.00
21728;BME280;11026;50.560;17.852;2023-11-25T01:22:53;97476.72;;;0.57;100.00
21728;BME280;11026;50.560;17.852;2023-11-25T01:25:21;97479.72;;;0.70;100.00
21728;BME280;11026;50.560;17.852;2023-11-25T01:27:48;97472.16;;;0.64;100.00
21728;BME280;11026;50.560;17.852;2023-11-25T01:30:16;97472.00;;;0.67;100.00
21728;BME280;11026;50.560;17.852;2023-11-25T01:32:43;97475.34;;;0.70;100.00
21728;BME280;11026;50.560;17.852;2023-11-25T01:35:10;97481.47;;;0.69;100.00
21728;BME280;11026;50.560;17.852;2023-11-25T01:37:38;97483.50;;;0.61;100.00
21728;BME280;11026;50.560;17.852;2023-11-25T01:40:06;97490.38;;;0.64;100.00
21728;BME280;11026;50.560;17.852;2023-11-25T01:42:38;97493.56;;;0.70;100.00
21728;BME280;11026;50.560;17.852;2023-11-25T01:45:06;97498.59;;;0.75;100.00
21728;BME280;11026;50.560;17.852;2023-11-25T01:47:36;97504.69;;;0.76;100.00
21728;BME280;11026;50.560;17.852;2023-11-25T01:50:04;97492.56;;;0.74;100.00
21728;BME280;11026;50.560;17.852;2023-11-25T01:52:35;97501.56;;;0.89;100.00
21728;BME280;11026;50.560;17.852;2023-11-25T01:55:02;97507.28;;;0.76;100.00
21728;BME280;11026;50.560;17.852;2023-11-25T01:57:31;97508.22;;;0.73;100.00
21728;BME280;11026;50.560;17.852;2023-11-25T02:00:02;97518.47;;;0.78;100.00
21728;BME280;11026;50.560;17.852;2023-11-25T02:02:35;97513.91;;;0.84;100.00
21728;BME280;11026;50.560;17.852;2023-11-25T02:05:02;97514.81;;;0.83;100.00
21728;BME280;11026;50.560;17.852;2023-11-25T02:07:32;97509.25;;;0.92;100.00
21728;BME280;11026;50.560;17.852;2023-11-25T02:09:59;97513.47;;;0.95;100.00
21728;BME280;11026;50.560;17.852;2023-11-25T02:12:26;97527.38;;;0.95;100.00
21728;BME280;11026;50.560;17.852;2023-11-25T02:14:54;97521.28;;;0.95;100.00
21728;BME280;11026;50.560;17.852;2023-11-25T02:17:25;97524.25;;;0.86;100.00
21728;BME280;11026;50.560;17.852;2023-11-25T02:19:52;97523.28;;;0.88;100.00
21728;BME280;11026;50.560;17.852;2023-11-25T02:22:20;97519.69;;;0.91;100.00
21728;BME280;11026;50.560;17.852;2023-11-25T02:24:49;97536.22;;;0.90;100.00
21728;BME280;11026;50.560;17.852;2023-11-25T02:27:16;97545.69;;;0.92;100.00
21728;BME280;11026;50.560;17.852;2023-11-25T02:29:43;97538.38;;;0.79;100.00
21728;BME280;11026;50.560;17.852;2023-11-25T02:32:10;97565.44;;;0.98;100.00
21728;BME280;11026;50.560;17.852;2023-11-25T02:34:38;97579.25;;;0.77;100.00
21728;BME280;11026;50.560;17.852;2023-11-25T02:37:05;97581.53;;;0.61;100.00
21728;BME280;11026;50.560;17.852;2023-11-25T02:39:34;97587.06;;;0.52;100.00
21728;BME280;11026;50.560;17.852;2023-11-25T02:42:06;97577.50;;;0.52;100.00
21728;BME280;11026;50.560;17.852;2023-11-25T02:44:35;97593.13;;;0.52;100.00
21728;BME280;11026;50.560;17.852;2023-11-25T02:47:03;97592.19;;;0.53;100.00
21728;BME280;11026;50.560;17.852;2023-11-25T02:49:34;97600.09;;;0.50;100.00
21728;BME280;11026;50.560;17.852;2023-11-25T02:52:04;97603.72;;;0.46;100.00
21728;BME280;11026;50.560;17.852;2023-11-25T02:54:37;97612.47;;;0.43;100.00
21728;BME280;11026;50.560;17.852;2023-11-25T02:57:06;97609.56;;;0.53;100.00
21728;BME280;11026;50.560;17.852;2023-11-25T02:59:35;97606.06;;;0.54;100.00
21728;BME280;11026;50.560;17.852;2023-11-25T03:02:05;97614.03;;;0.49;100.00
21728;BME280;11026;50.560;17.852;2023-11-25T03:04:39;97621.81;;;0.49;100.00
21728;BME280;11026;50.560;17.852;2023-11-25T03:07:12;97625.06;;;0.56;100.00
21728;BME280;11026;50.560;17.852;2023-11-25T03:09:40;97638.59;;;0.65;100.00
21728;BME280;11026;50.560;17.852;2023-11-25T03:12:10;97632.28;;;0.72;100.00
21728;BME280;11026;50.560;17.852;2023-11-25T03:14:39;97638.44;;;0.70;100.00
21728;BME280;11026;50.560;17.852;2023-11-25T03:17:07;97639.25;;;0.72;100.00
21728;BME280;11026;50.560;17.852;2023-11-25T03:19:34;97642.91;;;0.66;100.00
21728;BME280;11026;50.560;17.852;2023-11-25T03:22:04;97653.31;;;0.66;100.00
21728;BME280;11026;50.560;17.852;2023-11-25T03:24:31;97650.88;;;0.62;100.00
21728;BME280;11026;50.560;17.852;2023-11-25T03:26:58;97645.41;;;0.69;100.00
21728;BME280;11026;50.560;17.852;2023-11-25T03:29:25;97662.94;;;0.64;100.00
21728;BME280;11026;50.560;17.852;2023-11-25T03:31:54;97668.31;;;0.60;100.00
21728;BME280;11026;50.560;17.852;2023-11-25T03:34:21;97674.44;;;0.57;100.00
21728;BME280;11026;50.560;17.852;2023-11-25T03:36:48;97686.16;;;0.44;100.00
21728;BME280;11026;50.560;17.852;2023-11-25T03:39:15;97684.28;;;0.47;100.00
21728;BME280;11026;50.560;17.852;2023-11-25T03:41:42;97684.16;;;0.52;100.00
21728;BME280;11026;50.560;17.852;2023-11-25T03:44:09;97693.25;;;0.39;100.00
21728;BME280;11026;50.560;17.852;2023-11-25T03:46:40;97700.31;;;0.35;100.00
21728;BME280;11026;50.560;17.852;2023-11-25T03:49:07;97702.56;;;0.46;100.00
21728;BME280;11026;50.560;17.852;2023-11-25T03:51:36;97713.88;;;0.45;100.00
21728;BME280;11026;50.560;17.852;2023-11-25T03:54:03;97711.28;;;0.45;100.00
21728;BME280;11026;50.560;17.852;2023-11-25T03:56:31;97713.81;;;0.46;100.00
21728;BME280;11026;50.560;17.852;2023-11-25T03:58:59;97713.63;;;0.53;100.00
21728;BME280;11026;50.560;17.852;2023-11-25T04:01:26;97727.31;;;0.58;100.00
21728;BME280;11026;50.560;17.852;2023-11-25T04:03:54;97723.88;;;0.57;100.00
21728;BME280;11026;50.560;17.852;2023-11-25T04:06:22;97736.06;;;0.55;100.00
21728;BME280;11026;50.560;17.852;2023-11-25T04:08:50;97747.47;;;0.51;100.00
21728;BME280;11026;50.560;17.852;2023-11-25T04:11:18;97754.59;;;0.46;100.00
21728;BME280;11026;50.560;17.852;2023-11-25T04:13:45;97756.09;;;0.53;100.00
21728;BME280;11026;50.560;17.852;2023-11-25T04:16:14;97761.75;;;0.66;100.00
21728;BME280;11026;50.560;17.852;2023-11-25T04:18:41;97757.31;;;0.69;100.00
21728;BME280;11026;50.560;17.852;2023-11-25T04:21:08;97764.94;;;0.74;100.00
21728;BME280;11026;50.560;17.852;2023-11-25T04:23:36;97763.16;;;0.76;100.00
21728;BME280;11026;50.560;17.852;2023-11-25T04:26:04;97776.19;;;0.76;100.00
21728;BME280;11026;50.560;17.852;2023-11-25T04:28:35;97774.59;;;0.70;100.00
21728;BME280;11026;50.560;17.852;2023-11-25T04:31:02;97781.72;;;0.65;100.00
21728;BME280;11026;50.560;17.852;2023-11-25T04:33:29;97795.66;;;0.63;100.00
21728;BME280;11026;50.560;17.852;2023-11-25T04:36:08;97801.03;;;0.58;100.00
21728;BME280;11026;50.560;17.852;2023-11-25T04:38:42;97796.72;;;0.57;100.00
21728;BME280;11026;50.560;17.852;2023-11-25T04:41:09;97794.97;;;0.58;100.00
21728;BME280;11026;50.560;17.852;2023-11-25T04:43:38;97802.72;;;0.59;100.00
21728;BME280;11026;50.560;17.852;2023-11-25T04:46:09;97809.75;;;0.57;100.00
21728;BME280;11026;50.560;17.852;2023-11-25T04:48:38;97815.78;;;0.58;100.00
21728;BME280;11026;50.560;17.852;2023-11-25T04:51:06;97830.69;;;0.53;100.00
21728;BME280;11026;50.560;17.852;2023-11-25T04:53:33;97822.03;;;0.52;100.00
21728;BME280;11026;50.560;17.852;2023-11-25T04:55:59;97827.63;;;0.40;100.00
21728;BME280;11026;50.560;17.852;2023-11-25T04:58:26;97825.91;;;0.39;100.00
21728;BME280;11026;50.560;17.852;2023-11-25T05:00:54;97830.25;;;0.38;100.00
21728;BME280;11026;50.560;17.852;2023-11-25T05:03:23;97837.31;;;0.35;100.00
21728;BME280;11026;50.560;17.852;2023-11-25T05:05:52;97827.13;;;0.27;100.00
21728;BME280;11026;50.560;17.852;2023-11-25T05:08:20;97836.88;;;0.20;100.00
21728;BME280;11026;50.560;17.852;2023-11-25T05:10:48;97844.75;;;0.17;100.00
21728;BME280;11026;50.560;17.852;2023-11-25T05:13:15;97846.66;;;0.11;100.00
21728;BME280;11026;50.560;17.852;2023-11-25T05:15:43;97852.19;;;0.00;100.00
21728;BME280;11026;50.560;17.852;2023-11-25T05:18:11;97854.97;;;-0.06;100.00
21728;BME280;11026;50.560;17.852;2023-11-25T05:20:40;97852.22;;;-0.02;100.00
21728;BME280;11026;50.560;17.852;2023-11-25T05:23:07;97871.31;;;-0.03;100.00
21728;BME280;11026;50.560;17.852;2023-11-25T05:25:36;97874.69;;;0.01;100.00
21728;BME280;11026;50.560;17.852;2023-11-25T05:28:04;97874.72;;;-0.01;100.00
21728;BME280;11026;50.560;17.852;2023-11-25T05:30:31;97877.31;;;-0.01;100.00
21728;BME280;11026;50.560;17.852;2023-11-25T05:33:00;97873.78;;;0.02;100.00
21728;BME280;11026;50.560;17.852;2023-11-25T05:35:27;97880.69;;;0.03;100.00
21728;BME280;11026;50.560;17.852;2023-11-25T05:37:54;97880.69;;;0.03;100.00
21728;BME280;11026;50.560;17.852;2023-11-25T05:40:21;97886.72;;;0.04;100.00
21728;BME280;11026;50.560;17.852;2023-11-25T05:42:48;97887.00;;;-0.06;100.00
21728;BME280;11026;50.560;17.852;2023-11-25T05:45:20;97902.53;;;-0.04;100.00
21728;BME280;11026;50.560;17.852;2023-11-25T05:47:51;97907.97;;;-0.12;100.00
21728;BME280;11026;50.560;17.852;2023-11-25T05:50:18;97899.31;;;-0.12;100.00
21728;BME280;11026;50.560;17.852;2023-11-25T05:52:48;97915.78;;;-0.12;100.00
21728;BME280;11026;50.560;17.852;2023-11-25T05:55:18;97915.03;;;-0.17;100.00
21728;BME280;11026;50.560;17.852;2023-11-25T05:57:49;97914.34;;;-0.23;100.00
21728;BME280;11026;50.560;17.852;2023-11-25T06:00:20;97921.13;;;-0.18;100.00
21728;BME280;11026;50.560;17.852;2023-11-25T06:02:52;97919.25;;;-0.13;100.00
21728;BME280;11026;50.560;17.852;2023-11-25T06:05:20;97923.53;;;-0.10;100.00
21728;BME280;11026;50.560;17.852;2023-11-25T06:07:47;97924.31;;;-0.08;100.00
21728;BME280;11026;50.560;17.852;2023-11-25T06:10:16;97935.59;;;-0.08;100.00
21728;BME280;11026;50.560;17.852;2023-11-25T06:12:43;97934.94;;;-0.16;100.00
21728;BME280;11026;50.560;17.852;2023-11-25T06:15:10;97937.31;;;-0.08;100.00
21728;BME280;11026;50.560;17.852;2023-11-25T06:17:39;97929.50;;;-0.07;100.00
21728;BME280;11026;50.560;17.852;2023-11-25T06:20:08;97941.44;;;-0.01;100.00
21728;BME280;11026;50.560;17.852;2023-11-25T06:22:37;97955.28;;;0.01;100.00
21728;BME280;11026;50.560;17.852;2023-11-25T06:25:05;97950.81;;;0.06;100.00
21728;BME280;11026;50.560;17.852;2023-11-25T06:27:32;97956.34;;;-0.06;100.00
21728;BME280;11026;50.560;17.852;2023-11-25T06:29:59;97959.56;;;0.02;100.00
21728;BME280;11026;50.560;17.852;2023-11-25T06:32:26;97967.25;;;0.07;100.00
21728;BME280;11026;50.560;17.852;2023-11-25T06:34:58;97969.31;;;-0.06;100.00
21728;BME280;11026;50.560;17.852;2023-11-25T06:37:26;97975.38;;;-0.06;100.00
21728;BME280;11026;50.560;17.852;2023-11-25T06:39:54;97979.59;;;-0.02;100.00
21728;BME280;11026;50.560;17.852;2023-11-25T06:42:21;97986.22;;;0.10;100.00
21728;BME280;11026;50.560;17.852;2023-11-25T06:44:49;97978.63;;;0.03;100.00
21728;BME280;11026;50.560;17.852;2023-11-25T06:47:18;97978.63;;;0.03;100.00
21728;BME280;11026;50.560;17.852;2023-11-25T06:49:45;97993.19;;;0.10;100.00
21728;BME280;11026;50.560;17.852;2023-11-25T06:52:14;97993.22;;;0.08;100.00
21728;BME280;11026;50.560;17.852;2023-11-25T06:54:42;97985.19;;;0.16;100.00
21728;BME280;11026;50.560;17.852;2023-11-25T06:57:17;97991.09;;;0.22;100.00
21728;BME280;11026;50.560;17.852;2023-11-25T06:59:44;97991.16;;;0.19;100.00
21728;BME280;11026;50.560;17.852;2023-11-25T07:02:13;97983.75;;;0.06;100.00
21728;BME280;11026;50.560;17.852;2023-11-25T07:04:40;98000.28;;;0.03;100.00
21728;BME280;11026;50.560;17.852;2023-11-25T07:07:09;97988.31;;;-0.04;100.00
21728;BME280;11026;50.560;17.852;2023-11-25T07:09:36;97998.25;;;-0.18;100.00
21728;BME280;11026;50.560;17.852;2023-11-25T07:12:04;97998.81;;;-0.07;100.00
21728;BME280;11026;50.560;17.852;2023-11-25T07:14:34;98009.22;;;-0.07;100.00
21728;BME280;11026;50.560;17.852;2023-11-25T07:17:01;97996.81;;;0.04;100.00
21728;BME280;11026;50.560;17.852;2023-11-25T07:19:28;97999.34;;;0.06;100.00
21728;BME280;11026;50.560;17.852;2023-11-25T07:21:55;98000.78;;;0.17;100.00
21728;BME280;11026;50.560;17.852;2023-11-25T07:24:25;98004.75;;;0.31;100.00
21728;BME280;11026;50.560;17.852;2023-11-25T07:26:54;98008.97;;;0.35;100.00
21728;BME280;11026;50.560;17.852;2023-11-25T07:29:29;97996.47;;;0.16;100.00
21728;BME280;11026;50.560;17.852;2023-11-25T07:31:59;97999.53;;;0.31;100.00
21728;BME280;11026;50.560;17.852;2023-11-25T07:34:30;98006.44;;;0.32;100.00
21728;BME280;11026;50.560;17.852;2023-11-25T07:37:02;98014.13;;;0.36;100.00
21728;BME280;11026;50.560;17.852;2023-11-25T07:39:32;98015.00;;;0.37;100.00
21728;BME280;11026;50.560;17.852;2023-11-25T07:42:00;98012.47;;;0.34;100.00
21728;BME280;11026;50.560;17.852;2023-11-25T07:44:28;98020.19;;;0.37;100.00
21728;BME280;11026;50.560;17.852;2023-11-25T07:46:59;98021.13;;;0.34;100.00
21728;BME280;11026;50.560;17.852;2023-11-25T07:49:26;98034.97;;;0.35;100.00
21728;BME280;11026;50.560;17.852;2023-11-25T07:51:56;98028.31;;;0.24;100.00
21728;BME280;11026;50.560;17.852;2023-11-25T07:54:25;98037.75;;;0.29;100.00
21728;BME280;11026;50.560;17.852;2023-11-25T07:56:54;98030.53;;;0.40;100.00
21728;BME280;11026;50.560;17.852;2023-11-25T07:59:21;98039.00;;;0.46;100.00
21728;BME280;11026;50.560;17.852;2023-11-25T08:01:49;98037.16;;;0.50;100.00
21728;BME280;11026;50.560;17.852;2023-11-25T08:04:16;98039.13;;;0.42;100.00
21728;BME280;11026;50.560;17.852;2023-11-25T08:06:43;98036.88;;;0.61;100.00
21728;BME280;11026;50.560;17.852;2023-11-25T08:09:13;98042.66;;;0.70;100.00
21728;BME280;11026;50.560;17.852;2023-11-25T08:11:42;98041.03;;;0.66;100.00
21728;BME280;11026;50.560;17.852;2023-11-25T08:14:08;98038.44;;;0.66;100.00
21728;BME280;11026;50.560;17.852;2023-11-25T08:16:36;98042.84;;;0.64;100.00
21728;BME280;11026;50.560;17.852;2023-11-25T08:19:03;98046.31;;;0.63;100.00
21728;BME280;11026;50.560;17.852;2023-11-25T08:21:31;98053.19;;;0.67;100.00
21728;BME280;11026;50.560;17.852;2023-11-25T08:23:58;98057.81;;;0.56;100.00
21728;BME280;11026;50.560;17.852;2023-11-25T08:26:27;98065.44;;;0.62;100.00
21728;BME280;11026;50.560;17.852;2023-11-25T08:28:54;98065.84;;;0.48;100.00
21728;BME280;11026;50.560;17.852;2023-11-25T08:31:22;98078.41;;;0.31;100.00
21728;BME280;11026;50.560;17.852;2023-11-25T08:33:50;98084.47;;;0.32;100.00
21728;BME280;11026;50.560;17.852;2023-11-25T08:36:17;98082.69;;;0.34;100.00
21728;BME280;11026;50.560;17.852;2023-11-25T08:38:48;98083.78;;;0.25;100.00
21728;BME280;11026;50.560;17.852;2023-11-25T08:41:20;98084.56;;;0.29;100.00
21728;BME280;11026;50.560;17.852;2023-11-25T08:43:47;98094.97;;;0.29;100.00
21728;BME280;11026;50.560;17.852;2023-11-25T08:46:15;98096.53;;;0.36;100.00
21728;BME280;11026;50.560;17.852;2023-11-25T08:48:47;98091.16;;;0.42;100.00
21728;BME280;11026;50.560;17.852;2023-11-25T08:51:14;98101.47;;;0.45;100.00
21728;BME280;11026;50.560;17.852;2023-11-25T08:53:43;98099.16;;;0.34;100.00
21728;BME280;11026;50.560;17.852;2023-11-25T08:56:16;98109.56;;;0.34;100.00
21728;BME280;11026;50.560;17.852;2023-11-25T08:58:44;98102.66;;;0.32;100.00
21728;BME280;11026;50.560;17.852;2023-11-25T09:01:12;98113.44;;;0.52;100.00
21728;BME280;11026;50.560;17.852;2023-11-25T09:03:41;98116.09;;;0.82;100.00
21728;BME280;11026;50.560;17.852;2023-11-25T09:06:09;98115.50;;;0.72;100.00
21728;BME280;11026;50.560;17.852;2023-11-25T09:08:37;98126.91;;;0.66;100.00
21728;BME280;11026;50.560;17.852;2023-11-25T09:11:04;98124.44;;;0.62;100.00
21728;BME280;11026;50.560;17.852;2023-11-25T09:13:31;98128.72;;;0.64;100.00
21728;BME280;11026;50.560;17.852;2023-11-25T09:16:00;98144.09;;;0.73;100.00
21728;BME280;11026;50.560;17.852;2023-11-25T09:18:29;98143.56;;;0.61;100.00
21728;BME280;11026;50.560;17.852;2023-11-25T09:20:58;98146.03;;;0.65;100.00
21728;BME280;11026;50.560;17.852;2023-11-25T09:23:25;98150.34;;;0.66;100.00
21728;BME280;11026;50.560;17.852;2023-11-25T09:25:56;98164.97;;;0.70;100.00
21728;BME280;11026;50.560;17.852;2023-11-25T09:28:26;98158.22;;;0.63;100.00
21728;BME280;11026;50.560;17.852;2023-11-25T09:30:57;98163.53;;;0.60;100.00
21728;BME280;11026;50.560;17.852;2023-11-25T09:33:24;98162.50;;;0.66;100.00
21728;BME280;11026;50.560;17.852;2023-11-25T09:35:51;98164.97;;;0.70;100.00
21728;BME280;11026;50.560;17.852;2023-11-25T09:38:18;98159.91;;;0.66;100.00
21728;BME280;11026;50.560;17.852;2023-11-25T09:40:46;98154.91;;;0.58;100.00
21728;BME280;11026;50.560;17.852;2023-11-25T09:43:14;98165.09;;;0.67;100.00
21728;BME280;11026;50.560;17.852;2023-11-25T09:45:45;98167.38;;;0.78;100.00
21728;BME280;11026;50.560;17.852;2023-11-25T09:48:13;98162.97;;;0.82;100.00
21728;BME280;11026;50.560;17.852;2023-11-25T09:50:40;98177.66;;;0.84;100.00
21728;BME280;11026;50.560;17.852;2023-11-25T09:53:29;98176.94;;;0.78;100.00
21728;BME280;11026;50.560;17.852;2023-11-25T09:56:06;98186.44;;;0.80;100.00
21728;BME280;11026;50.560;17.852;2023-11-25T09:58:36;98188.13;;;0.81;100.00
21728;BME280;11026;50.560;17.852;2023-11-25T10:01:04;98196.09;;;0.75;100.00
21728;BME280;11026;50.560;17.852;2023-11-25T10:03:37;98180.59;;;0.70;100.00
21728;BME280;11026;50.560;17.852;2023-11-25T10:06:05;98188.47;;;0.69;100.00
21728;BME280;11026;50.560;17.852;2023-11-25T10:08:32;98189.31;;;0.69;100.00
21728;BME280;11026;50.560;17.852;2023-11-25T10:11:07;98185.72;;;0.73;100.00
21728;BME280;11026;50.560;17.852;2023-11-25T10:13:37;98190.03;;;0.74;100.00
21728;BME280;11026;50.560;17.852;2023-11-25T10:16:07;98205.66;;;0.74;100.00
21728;BME280;11026;50.560;17.852;2023-11-25T10:18:39;98202.84;;;0.82;100.00
21728;BME280;11026;50.560;17.852;2023-11-25T10:21:07;98200.31;;;0.81;100.00
21728;BME280;11026;50.560;17.852;2023-11-25T10:23:36;98206.03;;;0.93;100.00
21728;BME280;11026;50.560;17.852;2023-11-25T10:26:04;98208.13;;;0.79;100.00
21728;BME280;11026;50.560;17.852;2023-11-25T10:28:34;98202.06;;;0.80;100.00
21728;BME280;11026;50.560;17.852;2023-11-25T10:31:04;98205.44;;;0.84;100.00
21728;BME280;11026;50.560;17.852;2023-11-25T10:33:32;98189.91;;;0.81;100.00
21728;BME280;11026;50.560;17.852;2023-11-25T10:36:01;98197.63;;;0.84;100.00
21728;BME280;11026;50.560;17.852;2023-11-25T10:38:29;98195.91;;;0.83;100.00
21728;BME280;11026;50.560;17.852;2023-11-25T10:41:01;98200.19;;;0.85;100.00
21728;BME280;11026;50.560;17.852;2023-11-25T10:43:34;98190.50;;;0.90;100.00
21728;BME280;11026;50.560;17.852;2023-11-25T10:46:06;98186.81;;;0.99;100.00
21728;BME280;11026;50.560;17.852;2023-11-25T10:48:37;98195.03;;;0.82;100.00
21728;BME280;11026;50.560;17.852;2023-11-25T10:51:08;98202.06;;;0.79;100.00
21728;BME280;11026;50.560;17.852;2023-11-25T10:53:37;98192.75;;;0.71;100.00
21728;BME280;11026;50.560;17.852;2023-11-25T10:56:06;98196.78;;;0.83;100.00
21728;BME280;11026;50.560;17.852;2023-11-25T10:58:34;98197.44;;;0.90;100.00
21728;BME280;11026;50.560;17.852;2023-11-25T11:01:03;98200.97;;;0.89;100.00
21728;BME280;11026;50.560;17.852;2023-11-25T11:06:04;98208.25;;;0.74;100.00
21728;BME280;11026;50.560;17.852;2023-11-25T11:08:41;98212.81;;;0.66;100.00
21728;BME280;11026;50.560;17.852;2023-11-25T11:11:14;98203.25;;;0.67;100.00
21728;BME280;11026;50.560;17.852;2023-11-25T11:13:51;98197.13;;;0.69;100.00
21728;BME280;11026;50.560;17.852;2023-11-25T11:19:10;98202.91;;;0.81;100.00
21728;BME280;11026;50.560;17.852;2023-11-25T11:21:38;98202.97;;;0.78;100.00
21728;BME280;11026;50.560;17.852;2023-11-25T11:24:07;98199.28;;;0.86;100.00
21728;BME280;11026;50.560;17.852;2023-11-25T11:27:14;98203.31;;;0.98;100.00
21728;BME280;11026;50.560;17.852;2023-11-25T11:29:41;98200.03;;;0.91;100.00
21728;BME280;11026;50.560;17.852;2023-11-25T12:08:40;98188.31;;;1.06;100.00
21728;BME280;11026;50.560;17.852;2023-11-25T12:11:07;98184.94;;;1.04;100.00
21728;BME280;11026;50.560;17.852;2023-11-25T12:13:37;98184.84;;;1.07;100.00
21728;BME280;11026;50.560;17.852;2023-11-25T12:16:07;98185.78;;;1.05;100.00
21728;BME280;11026;50.560;17.852;2023-11-25T12:18:36;98181.34;;;1.08;100.00
21728;BME280;11026;50.560;17.852;2023-11-25T12:21:06;98170.03;;;1.09;100.00
21728;BME280;11026;50.560;17.852;2023-11-25T12:23:34;98181.28;;;1.11;100.00
21728;BME280;11026;50.560;17.852;2023-11-25T12:26:23;98185.50;;;1.15;100.00
21728;BME280;11026;50.560;17.852;2023-11-25T12:28:52;98179.50;;;1.12;100.00
21728;BME280;11026;50.560;17.852;2023-11-25T12:31:19;98181.28;;;1.11;100.00
21728;BME280;11026;50.560;17.852;2023-11-25T12:33:47;98174.03;;;1.21;100.00
21728;BME280;11026;50.560;17.852;2023-11-25T12:36:16;98171.09;;;1.63;100.00
21728;BME280;11026;50.560;17.852;2023-11-25T12:38:43;98183.19;;;2.21;100.00
21728;BME280;11026;50.560;17.852;2023-11-25T12:41:10;98178.28;;;2.12;100.00
21728;BME280;11026;50.560;17.852;2023-11-25T12:44:02;98180.94;;;1.83;100.00
21728;BME280;11026;50.560;17.852;2023-11-25T12:46:31;98182.41;;;1.62;100.00
21728;BME280;11026;50.560;17.852;2023-11-25T12:48:58;98190.56;;;1.51;100.00
21728;BME280;11026;50.560;17.852;2023-11-25T12:51:41;98188.84;;;1.50;100.00
21728;BME280;11026;50.560;17.852;2023-11-25T12:54:11;98194.25;;;1.44;100.00
21728;BME280;11026;50.560;17.852;2023-11-25T12:56:40;98185.50;;;1.45;100.00
21728;BME280;11026;50.560;17.852;2023-11-25T12:59:10;98193.69;;;1.62;100.00
21728;BME280;11026;50.560;17.852;2023-11-25T13:01:40;98186.31;;;1.77;100.00
21728;BME280;11026;50.560;17.852;2023-11-25T13:04:08;98180.56;;;1.95;100.00
21728;BME280;11026;50.560;17.852;2023-11-25T13:06:48;98173.91;;;1.85;100.00
21728;BME280;11026;50.560;17.852;2023-11-25T13:09:16;98185.63;;;1.71;100.00
21728;BME280;11026;50.560;17.852;2023-11-25T13:11:47;98185.00;;;1.63;100.00
21728;BME280;11026;50.560;17.852;2023-11-25T13:14:14;98189.19;;;1.38;100.00
21728;BME280;11026;50.560;17.852;2023-11-25T13:16:43;98190.81;;;1.42;100.00
21728;BME280;11026;50.560;17.852;2023-11-25T13:19:10;98201.00;;;1.18;100.00
21728;BME280;11026;50.560;17.852;2023-11-25T13:21:38;98186.28;;;1.17;100.00
21728;BME280;11026;50.560;17.852;2023-11-25T13:24:07;98185.78;;;1.05;100.00
21728;BME280;11026;50.560;17.852;2023-11-25T13:26:34;98190.94;;;1.06;100.00
21728;BME280;11026;50.560;17.852;2023-11-25T13:29:01;98192.59;;;1.09;100.00
21728;BME280;11026;50.560;17.852;2023-11-25T13:31:28;98186.69;;;1.02;100.00
21728;BME280;11026;50.560;17.852;2023-11-25T13:33:55;98186.63;;;1.05;100.00
21728;BME280;11026;50.560;17.852;2023-11-25T13:36:25;98192.03;;;0.99;100.00
21728;BME280;11026;50.560;17.852;2023-11-25T13:38:53;98192.56;;;1.10;100.00
21728;BME280;11026;50.560;17.852;2023-11-25T13:41:22;98196.91;;;1.11;100.00